Time;durP1;ratioP1;P1;durP2;ratioP2;P2;SDS_P1;SDS_P2;PMS_P1;PMS_P2;Temp;Humidity;BMP_temperature;BMP_pressure;BME280_temperature;BME280_humidity;BME280_pressure;Samples;Min_cycle;Max_cycle;Signal;HPM_P1;HPM_P2
2022/02/25 00:00:27;;;;;;;14.35;1.73;;;;;;;;;;4961667;28;20113;-59
2022/02/25 00:02:57;;;;;;;11.32;1.90;;;;;;;;;;4959598;28;20806;-58
2022/02/25 00:05:26;;;;;;;9.05;1.77;;;;;;;;;;4957800;28;20035;-61
2022/02/25 00:07:54;;;;;;;16.08;1.77;;;;;;;;;;4958251;28;20058;-61
2022/02/25 00:10:21;;;;;;;14.27;2.67;;;;;;;;;;4959254;28;20034;-60
2022/02/25 00:12:49;;;;;;;14.15;2.30;;;;;;;;;;4958525;28;20125;-60
2022/02/25 00:15:15;;;;;;;11.75;2.38;;;;;;;;;;4928516;28;20046;-60
2022/02/25 00:17:43;;;;;;;12.00;1.77;;;;;;;;;;4945067;28;20646;-61
2022/02/25 00:20:13;;;;;;;13.63;2.20;;;;;;;;;;4926816;28;20046;-61
2022/02/25 00:22:40;;;;;;;8.32;2.13;;;;;;;;;;4925049;28;20046;-61
2022/02/25 00:25:07;;;;;;;9.73;1.48;;;;;;;;;;4924643;28;20247;-59
2022/02/25 00:27:33;;;;;;;21.65;2.17;;;;;;;;;;4958892;28;20038;-60
2022/02/25 00:30:01;;;;;;;30.17;3.33;;;;;;;;;;4927920;28;20030;-59
2022/02/25 00:32:31;;;;;;;11.32;1.73;;;;;;;;;;4931940;28;20046;-60
2022/02/25 00:34:56;;;;;;;6.85;1.30;;;;;;;;;;4958704;28;20046;-60
2022/02/25 00:37:24;;;;;;;4.72;1.10;;;;;;;;;;4960060;28;20034;-60
2022/02/25 00:39:52;;;;;;;15.93;1.65;;;;;;;;;;4958528;28;20101;-60
2022/02/25 00:42:18;;;;;;;6.15;1.40;;;;;;;;;;4941650;28;20038;-59
2022/02/25 00:44:45;;;;;;;13.55;1.85;;;;;;;;;;4941989;28;20040;-61
2022/02/25 00:47:11;;;;;;;13.75;2.00;;;;;;;;;;4926596;28;20057;-60
2022/02/25 00:49:39;;;;;;;13.48;1.45;;;;;;;;;;4958892;28;21040;-61
2022/02/25 00:52:09;;;;;;;16.65;1.83;;;;;;;;;;4929816;28;20086;-59
2022/02/25 00:54:35;;;;;;;10.40;1.63;;;;;;;;;;4957225;28;20092;-59
2022/02/25 00:57:00;;;;;;;25.15;3.15;;;;;;;;;;4957767;28;20042;-60
2022/02/25 00:59:28;;;;;;;16.35;2.05;;;;;;;;;;4937715;28;20130;-59
2022/02/25 01:01:58;;;;;;;14.63;2.08;;;;;;;;;;4929630;28;20050;-58
2022/02/25 01:04:24;;;;;;;9.93;2.17;;;;;;;;;;4956295;28;22026;-59
2022/02/25 01:06:52;;;;;;;10.52;2.22;;;;;;;;;;4929933;28;20045;-60
2022/02/25 01:09:24;;;;;;;16.35;1.92;;;;;;;;;;4926800;28;20062;-60
2022/02/25 01:11:51;;;;;;;11.93;1.35;;;;;;;;;;4927349;28;20068;-60
2022/02/25 01:14:19;;;;;;;12.38;1.73;;;;;;;;;;4927775;28;20026;-60
2022/02/25 01:16:49;;;;;;;14.82;1.83;;;;;;;;;;4945186;28;20036;-62
2022/02/25 01:19:20;;;;;;;19.38;2.33;;;;;;;;;;4958209;28;20038;-61
2022/02/25 01:21:48;;;;;;;6.70;1.35;;;;;;;;;;4942986;28;20715;-61
2022/02/25 01:24:16;;;;;;;9.65;2.25;;;;;;;;;;4943735;28;20104;-60
2022/02/25 01:26:41;;;;;;;18.42;2.53;;;;;;;;;;4943827;28;20517;-60
2022/02/25 01:29:11;;;;;;;17.98;2.92;;;;;;;;;;4955291;28;20039;-60
2022/02/25 01:31:43;;;;;;;12.15;2.47;;;;;;;;;;4958273;28;20845;-60
2022/02/25 01:34:11;;;;;;;18.75;1.98;;;;;;;;;;4960194;28;20077;-60
2022/02/25 01:36:39;;;;;;;21.02;2.35;;;;;;;;;;4941768;28;20109;-61
2022/02/25 01:39:09;;;;;;;9.80;2.15;;;;;;;;;;4944206;28;20585;-60
2022/02/25 01:41:37;;;;;;;16.73;1.55;;;;;;;;;;4941239;28;20041;-61
2022/02/25 01:44:12;;;;;;;33.92;2.10;;;;;;;;;;4927659;28;20030;-60
2022/02/25 01:46:41;;;;;;;17.40;1.95;;;;;;;;;;4956250;28;20089;-60
2022/02/25 01:49:06;;;;;;;12.32;1.45;;;;;;;;;;4954460;28;20023;-60
2022/02/25 01:51:34;;;;;;;12.23;2.00;;;;;;;;;;4958324;28;20193;-60
2022/02/25 01:53:59;;;;;;;18.83;1.80;;;;;;;;;;4932134;28;20506;-60
2022/02/25 01:56:25;;;;;;;20.23;2.72;;;;;;;;;;4956794;28;20077;-59
2022/02/25 01:58:53;;;;;;;15.68;2.75;;;;;;;;;;4943688;28;20044;-61
2022/02/25 02:01:19;;;;;;;13.98;2.00;;;;;;;;;;4938660;28;20043;-61
2022/02/25 02:03:44;;;;;;;12.15;2.05;;;;;;;;;;4960036;28;20056;-62
2022/02/25 02:06:15;;;;;;;10.93;1.80;;;;;;;;;;4964766;28;20412;-59
2022/02/25 02:08:43;;;;;;;21.90;1.85;;;;;;;;;;4964869;28;20062;-60
2022/02/25 02:11:27;;;;;;;11.35;1.95;;;;;;;;;;4975403;28;20030;-59
2022/02/25 02:13:54;;;;;;;14.70;2.35;;;;;;;;;;4963952;28;20029;-59
2022/02/25 02:16:22;;;;;;;16.75;1.63;;;;;;;;;;4964319;28;20029;-59
2022/02/25 02:18:47;;;;;;;11.98;1.50;;;;;;;;;;4957007;28;20100;-59
2022/02/25 02:21:15;;;;;;;8.68;1.88;;;;;;;;;;4965366;28;21154;-59
2022/02/25 02:23:41;;;;;;;6.28;2.83;;;;;;;;;;4979464;28;20365;-59
2022/02/25 02:26:09;;;;;;;22.00;3.30;;;;;;;;;;4963797;28;20338;-60
2022/02/25 02:28:37;;;;;;;7.43;2.28;;;;;;;;;;4978972;28;22272;-59
2022/02/25 02:31:04;;;;;;;22.90;2.08;;;;;;;;;;4967734;28;20107;-59
2022/02/25 02:33:32;;;;;;;7.00;1.42;;;;;;;;;;4949232;28;20041;-59
2022/02/25 02:36:00;;;;;;;15.25;2.25;;;;;;;;;;4982893;28;20033;-58
2022/02/25 02:38:33;;;;;;;18.20;2.47;;;;;;;;;;4968242;28;20030;-59
2022/02/25 02:40:58;;;;;;;15.10;1.77;;;;;;;;;;4962896;28;20116;-60
2022/02/25 02:43:24;;;;;;;20.15;2.70;;;;;;;;;;4979250;28;20032;-60
2022/02/25 02:45:53;;;;;;;8.82;1.52;;;;;;;;;;4980542;28;20026;-60
2022/02/25 02:48:19;;;;;;;17.88;2.05;;;;;;;;;;4979271;28;20116;-60
2022/02/25 02:50:47;;;;;;;9.90;1.30;;;;;;;;;;4959703;28;20038;-60
2022/02/25 02:53:15;;;;;;;13.00;1.88;;;;;;;;;;4967049;28;20037;-60
2022/02/25 02:55:44;;;;;;;13.75;2.00;;;;;;;;;;4964416;28;20093;-61
2022/02/25 02:58:10;;;;;;;7.10;1.98;;;;;;;;;;4964122;28;20035;-60
2022/02/25 03:00:37;;;;;;;11.82;1.80;;;;;;;;;;4964244;28;20022;-59
2022/02/25 03:03:03;;;;;;;15.02;1.98;;;;;;;;;;4978835;28;20481;-59
2022/02/25 03:05:29;;;;;;;16.63;1.52;;;;;;;;;;4961631;28;20035;-60
2022/02/25 03:07:57;;;;;;;14.13;1.98;;;;;;;;;;4966586;28;20042;-59
2022/02/25 03:10:25;;;;;;;12.25;1.77;;;;;;;;;;4979592;28;20037;-60
2022/02/25 03:12:50;;;;;;;12.02;1.80;;;;;;;;;;4963406;28;20038;-59
2022/02/25 03:15:16;;;;;;;2.85;1.60;;;;;;;;;;4983123;28;20141;-60
2022/02/25 03:17:47;;;;;;;14.43;2.05;;;;;;;;;;4963682;28;20030;-59
2022/02/25 03:20:14;;;;;;;11.93;2.60;;;;;;;;;;4947451;28;20246;-59
2022/02/25 03:22:40;;;;;;;6.18;1.75;;;;;;;;;;4978128;28;20041;-61
2022/02/25 03:25:06;;;;;;;19.65;1.70;;;;;;;;;;4965172;28;20099;-60
2022/02/25 03:27:33;;;;;;;14.52;2.33;;;;;;;;;;4977565;28;20100;-60
2022/02/25 03:30:04;;;;;;;8.75;1.60;;;;;;;;;;4951494;28;20049;-60
2022/02/25 03:32:35;;;;;;;11.27;1.92;;;;;;;;;;4977001;28;20046;-61
2022/02/25 03:35:00;;;;;;;11.20;1.88;;;;;;;;;;4979328;28;20030;-60
2022/02/25 03:37:29;;;;;;;15.90;2.33;;;;;;;;;;4973670;28;20150;-59
2022/02/25 03:39:56;;;;;;;11.85;1.65;;;;;;;;;;4980968;28;20465;-60
2022/02/25 03:42:26;;;;;;;18.63;2.33;;;;;;;;;;4977057;28;20088;-60
2022/02/25 03:44:54;;;;;;;17.63;2.70;;;;;;;;;;4970702;28;20041;-59
2022/02/25 03:47:20;;;;;;;13.63;1.42;;;;;;;;;;4963882;28;20708;-59
2022/02/25 03:49:48;;;;;;;12.48;1.15;;;;;;;;;;4976916;28;20053;-60
2022/02/25 03:52:15;;;;;;;16.88;2.22;;;;;;;;;;4979132;28;20033;-59
2022/02/25 03:54:43;;;;;;;13.32;2.13;;;;;;;;;;4980601;28;20496;-60
2022/02/25 03:57:13;;;;;;;13.23;2.55;;;;;;;;;;4982417;28;20117;-60
2022/02/25 03:59:39;;;;;;;19.40;1.77;;;;;;;;;;4959222;28;20037;-60
2022/02/25 04:02:06;;;;;;;10.15;1.55;;;;;;;;;;4977952;28;20065;-61
2022/02/25 04:04:32;;;;;;;10.88;1.27;;;;;;;;;;4967345;28;20074;-59
2022/02/25 04:06:57;;;;;;;13.25;2.53;;;;;;;;;;4966475;28;20566;-62
2022/02/25 04:09:27;;;;;;;16.42;2.22;;;;;;;;;;4965124;28;20045;-61
2022/02/25 04:11:57;;;;;;;22.35;2.25;;;;;;;;;;4957840;28;20037;-61
2022/02/25 04:14:25;;;;;;;17.35;2.35;;;;;;;;;;4963390;28;20019;-60
2022/02/25 04:16:55;;;;;;;10.20;1.73;;;;;;;;;;4976594;28;20117;-61
2022/02/25 04:19:21;;;;;;;14.90;1.88;;;;;;;;;;4976644;28;20038;-59
2022/02/25 04:21:46;;;;;;;15.73;1.75;;;;;;;;;;4963988;28;20038;-59
2022/02/25 04:24:13;;;;;;;11.82;1.73;;;;;;;;;;4959246;28;20753;-59
2022/02/25 04:26:41;;;;;;;12.15;1.95;;;;;;;;;;4976078;28;20033;-59
2022/02/25 04:29:10;;;;;;;15.52;1.77;;;;;;;;;;4976119;28;20033;-60
2022/02/25 04:31:38;;;;;;;15.65;2.22;;;;;;;;;;4976035;28;20202;-59
2022/02/25 04:34:03;;;;;;;12.52;1.42;;;;;;;;;;4969037;28;20033;-59
2022/02/25 04:36:33;;;;;;;7.65;1.20;;;;;;;;;;4978816;28;20034;-60
2022/02/25 04:39:00;;;;;;;13.90;1.70;;;;;;;;;;4969466;28;20119;-60
2022/02/25 04:41:28;;;;;;;11.60;1.88;;;;;;;;;;4962919;28;20120;-60
2022/02/25 04:43:54;;;;;;;7.43;1.77;;;;;;;;;;4976223;28;20496;-59
2022/02/25 04:46:23;;;;;;;15.68;1.85;;;;;;;;;;4948125;28;20132;-62
2022/02/25 04:48:49;;;;;;;13.77;2.03;;;;;;;;;;4976535;28;20129;-58
2022/02/25 04:51:17;;;;;;;7.55;0.93;;;;;;;;;;4958951;28;20032;-61
2022/02/25 04:53:46;;;;;;;11.07;2.90;;;;;;;;;;4966981;28;20344;-59
2022/02/25 04:56:16;;;;;;;15.27;2.50;;;;;;;;;;4969715;28;20038;-58
2022/02/25 04:58:42;;;;;;;23.90;2.42;;;;;;;;;;4954314;28;20096;-61
2022/02/25 05:01:10;;;;;;;10.52;1.55;;;;;;;;;;4952919;28;20100;-60
2022/02/25 05:03:41;;;;;;;15.13;2.95;;;;;;;;;;4938889;28;20144;-61
2022/02/25 05:06:06;;;;;;;15.82;2.15;;;;;;;;;;4938471;28;20122;-61
2022/02/25 05:08:32;;;;;;;14.75;2.58;;;;;;;;;;4944940;28;20307;-60
2022/02/25 05:10:58;;;;;;;11.75;1.90;;;;;;;;;;4956205;28;20042;-58
2022/02/25 05:13:24;;;;;;;10.02;2.47;;;;;;;;;;4946527;28;20034;-61
2022/02/25 05:21:24;;;;;;;16.00;2.25;;;;;;;;;;4953155;28;20050;-59
2022/02/25 05:23:50;;;;;;;16.40;1.90;;;;;;;;;;4948620;28;20039;-60
2022/02/25 05:26:16;;;;;;;16.90;1.63;;;;;;;;;;4918594;28;20370;-59
2022/02/25 05:28:44;;;;;;;18.58;2.25;;;;;;;;;;4951210;28;20156;-59
2022/02/25 05:31:12;;;;;;;20.17;2.05;;;;;;;;;;4938022;28;20141;-59
2022/02/25 05:33:41;;;;;;;13.15;2.15;;;;;;;;;;4948061;28;20045;-59
2022/02/25 05:36:09;;;;;;;22.02;3.20;;;;;;;;;;4951096;28;20045;-60
2022/02/25 05:38:35;;;;;;;9.00;1.27;;;;;;;;;;4943221;28;20031;-59
2022/02/25 05:41:03;;;;;;;19.38;2.22;;;;;;;;;;4956978;28;20482;-61
2022/02/25 05:43:31;;;;;;;19.23;2.33;;;;;;;;;;4911308;28;20034;-60
2022/02/25 05:45:59;;;;;;;22.38;2.78;;;;;;;;;;4962843;28;20600;-60
2022/02/25 05:48:29;;;;;;;15.75;2.50;;;;;;;;;;4949312;28;20030;-61
2022/02/25 05:50:58;;;;;;;11.20;1.80;;;;;;;;;;4946872;28;20065;-59
2022/02/25 05:53:23;;;;;;;20.60;2.28;;;;;;;;;;4965010;28;20441;-59
2022/02/25 05:55:51;;;;;;;18.92;2.85;;;;;;;;;;4945418;28;20184;-59
2022/02/25 05:58:22;;;;;;;13.65;2.38;;;;;;;;;;4947567;28;20485;-58
2022/02/25 06:00:47;;;;;;;21.05;2.60;;;;;;;;;;4964639;28;20541;-61
2022/02/25 06:03:13;;;;;;;4.57;1.50;;;;;;;;;;4960254;28;20054;-60
2022/02/25 06:05:41;;;;;;;15.52;1.83;;;;;;;;;;4960290;28;20765;-60
2022/02/25 06:08:11;;;;;;;4.50;1.23;;;;;;;;;;4964397;28;20058;-59
2022/02/25 06:10:36;;;;;;;13.52;1.60;;;;;;;;;;4965177;28;20101;-59
2022/02/25 06:13:02;;;;;;;14.35;2.20;;;;;;;;;;4947863;28;20030;-61
2022/02/25 06:15:30;;;;;;;7.72;1.50;;;;;;;;;;4966157;28;20031;-63
2022/02/25 06:18:01;;;;;;;11.32;2.10;;;;;;;;;;4962889;28;20833;-59
2022/02/25 06:20:27;;;;;;;9.10;1.35;;;;;;;;;;4966612;28;20053;-60
2022/02/25 06:22:57;;;;;;;12.18;1.67;;;;;;;;;;4951109;28;20068;-59
2022/02/25 06:25:27;;;;;;;9.65;1.80;;;;;;;;;;4969967;28;20057;-58
2022/02/25 06:27:55;;;;;;;6.13;1.75;;;;;;;;;;4964715;28;20065;-59
2022/02/25 06:30:23;;;;;;;7.28;1.60;;;;;;;;;;4962842;28;20037;-59
2022/02/25 06:32:52;;;;;;;7.35;2.25;;;;;;;;;;4963332;28;20034;-59
2022/02/25 06:35:19;;;;;;;16.52;1.77;;;;;;;;;;4960092;28;20057;-59
2022/02/25 06:37:48;;;;;;;4.80;1.27;;;;;;;;;;4960090;28;20405;-59
2022/02/25 06:40:18;;;;;;;10.40;2.25;;;;;;;;;;4963171;28;20033;-59
2022/02/25 06:42:49;;;;;;;7.13;1.40;;;;;;;;;;4961393;28;20034;-59
2022/02/25 06:45:19;;;;;;;13.27;2.38;;;;;;;;;;4982429;28;20096;-59
2022/02/25 06:47:44;;;;;;;4.88;1.75;;;;;;;;;;4961478;28;20133;-60
2022/02/25 06:50:13;;;;;;;16.73;2.20;;;;;;;;;;4964048;28;20022;-60
2022/02/25 06:52:42;;;;;;;20.02;2.08;;;;;;;;;;4965027;28;20038;-59
2022/02/25 06:55:13;;;;;;;13.13;2.60;;;;;;;;;;4967396;28;20166;-59
2022/02/25 06:57:42;;;;;;;23.30;2.15;;;;;;;;;;4956975;28;20038;-60
2022/02/25 07:00:08;;;;;;;13.35;1.80;;;;;;;;;;4966161;28;20126;-60
2022/02/25 07:02:33;;;;;;;10.05;1.63;;;;;;;;;;4979069;28;20058;-62
2022/02/25 07:05:02;;;;;;;12.18;2.65;;;;;;;;;;4949647;28;20118;-61
2022/02/25 07:07:27;;;;;;;15.00;2.25;;;;;;;;;;4963195;28;20085;-59
2022/02/25 07:09:53;;;;;;;26.60;3.00;;;;;;;;;;4962404;28;20587;-61
2022/02/25 07:12:19;;;;;;;16.52;2.58;;;;;;;;;;4930311;28;20039;-61
2022/02/25 07:14:44;;;;;;;13.23;2.13;;;;;;;;;;4973434;28;20049;-59
2022/02/25 07:17:12;;;;;;;13.63;3.33;;;;;;;;;;4945619;28;20491;-58
2022/02/25 07:19:40;;;;;;;18.33;2.60;;;;;;;;;;4946207;28;20026;-60
2022/02/25 07:22:08;;;;;;;9.82;2.05;;;;;;;;;;4962264;28;20030;-60
2022/02/25 07:24:33;;;;;;;10.85;2.00;;;;;;;;;;4963644;28;20066;-60
2022/02/25 07:27:01;;;;;;;7.18;1.77;;;;;;;;;;4933781;28;20034;-59
2022/02/25 07:29:31;;;;;;;21.48;3.15;;;;;;;;;;4981373;28;20076;-61
2022/02/25 07:31:59;;;;;;;19.77;2.38;;;;;;;;;;4949587;28;20030;-62
2022/02/25 07:34:27;;;;;;;11.63;2.72;;;;;;;;;;4979125;28;20100;-60
2022/02/25 07:36:53;;;;;;;24.35;2.60;;;;;;;;;;4979071;28;20517;-60
2022/02/25 07:39:22;;;;;;;15.70;2.67;;;;;;;;;;4963115;28;20041;-60
2022/02/25 07:41:47;;;;;;;12.15;1.65;;;;;;;;;;4979604;28;20457;-59
2022/02/25 07:44:17;;;;;;;14.98;3.20;;;;;;;;;;4979947;28;20834;-61
2022/02/25 07:46:47;;;;;;;21.00;2.40;;;;;;;;;;5086045;23;20050;-89
2022/02/25 07:49:14;;;;;;;13.20;2.00;;;;;;;;;;5020364;28;20030;-90
2022/02/25 07:51:39;;;;;;;18.23;2.42;;;;;;;;;;4987357;28;20025;-88
2022/02/25 07:54:05;;;;;;;18.10;2.55;;;;;;;;;;4989602;28;20112;-91
2022/02/25 07:56:35;;;;;;;21.23;2.40;;;;;;;;;;4989753;28;20045;-92
2022/02/25 07:59:07;;;;;;;23.38;2.47;;;;;;;;;;5010012;28;20131;-91
2022/02/25 08:01:32;;;;;;;13.85;2.35;;;;;;;;;;5012881;28;20030;-91
2022/02/25 08:04:01;;;;;;;17.08;1.83;;;;;;;;;;5006892;28;20582;-88
2022/02/25 08:06:33;;;;;;;12.32;2.45;;;;;;;;;;5006014;28;20045;-90
2022/02/25 08:08:58;;;;;;;15.07;2.20;;;;;;;;;;4983519;28;20244;-91
2022/02/25 08:11:24;;;;;;;11.65;1.85;;;;;;;;;;5005529;28;20463;-90
2022/02/25 08:13:50;;;;;;;12.30;2.03;;;;;;;;;;5004501;28;20049;-90
2022/02/25 08:16:16;;;;;;;16.88;2.88;;;;;;;;;;4991633;28;20034;-92
2022/02/25 08:18:45;;;;;;;16.45;2.78;;;;;;;;;;4987426;28;20022;-90
2022/02/25 08:21:12;;;;;;;19.70;2.65;;;;;;;;;;5001459;28;20036;-91
2022/02/25 08:23:38;;;;;;;14.50;2.20;;;;;;;;;;4987487;28;20313;-89
2022/02/25 08:26:18;;;;;;;11.95;1.63;;;;;;;;;;5020563;28;20014;-89
2022/02/25 08:32:14;;;;;;;16.75;2.05;;;;;;;;;;5017225;28;20029;-89
2022/02/25 08:34:41;;;;;;;13.55;2.22;;;;;;;;;;4992418;28;20015;-90
2022/02/25 08:37:06;;;;;;;18.58;1.90;;;;;;;;;;4981841;28;20085;-91
2022/02/25 08:39:51;;;;;;;11.88;1.50;;;;;;;;;;4986367;28;20420;-91
2022/02/25 08:42:16;;;;;;;12.02;2.25;;;;;;;;;;4988551;28;20375;-91
2022/02/25 08:44:49;;;;;;;11.20;1.73;;;;;;;;;;4991151;28;20014;-90
2022/02/25 08:47:14;;;;;;;22.48;2.17;;;;;;;;;;4975211;28;20203;-88
2022/02/25 08:50:30;;;;;;;23.02;2.00;;;;;;;;;;4992631;28;20058;-91
2022/02/25 08:52:57;;;;;;;20.92;1.92;;;;;;;;;;5015098;28;20192;-90
2022/02/25 08:55:22;;;;;;;10.07;1.75;;;;;;;;;;4976777;28;20040;-89
2022/02/25 08:57:49;;;;;;;11.80;2.05;;;;;;;;;;5019395;28;20143;-89
2022/02/25 09:00:17;;;;;;;19.45;1.63;;;;;;;;;;4994982;28;20022;-92
2022/02/25 09:02:43;;;;;;;17.67;1.63;;;;;;;;;;5012989;28;20084;-89
2022/02/25 09:05:09;;;;;;;19.20;2.95;;;;;;;;;;4994398;28;20035;-89
2022/02/25 09:07:54;;;;;;;13.60;1.42;;;;;;;;;;5005727;28;20504;-87
2022/02/25 09:10:32;;;;;;;11.70;2.15;;;;;;;;;;4992718;28;20066;-90
2022/02/25 09:12:57;;;;;;;13.82;1.48;;;;;;;;;;5002219;28;20115;-88
2022/02/25 09:15:26;;;;;;;14.40;2.05;;;;;;;;;;4986798;28;20351;-90
2022/02/25 09:18:00;;;;;;;21.90;2.25;;;;;;;;;;5004367;28;20048;-89
2022/02/25 09:20:49;;;;;;;18.65;3.33;;;;;;;;;;4987252;28;20439;-89
2022/02/25 09:23:14;;;;;;;13.68;2.75;;;;;;;;;;5005035;28;21731;-88
2022/02/25 09:25:50;;;;;;;18.55;2.88;;;;;;;;;;4990462;28;20034;-91
2022/02/25 09:28:16;;;;;;;12.60;2.20;;;;;;;;;;4994544;28;20030;-92
2022/02/25 09:30:44;;;;;;;21.35;2.20;;;;;;;;;;5023308;28;20052;-90
2022/02/25 09:33:15;;;;;;;17.58;2.10;;;;;;;;;;5022692;28;20104;-88
2022/02/25 09:35:45;;;;;;;11.02;1.70;;;;;;;;;;5021286;28;20034;-88
2022/02/25 09:38:14;;;;;;;18.17;2.33;;;;;;;;;;5027290;28;20117;-92
2022/02/25 09:40:41;;;;;;;34.63;3.17;;;;;;;;;;4987841;28;20053;-91
2022/02/25 09:43:20;;;;;;;23.75;2.88;;;;;;;;;;4988094;28;20029;-90
2022/02/25 09:45:49;;;;;;;16.63;2.40;;;;;;;;;;5009232;28;20120;-90
2022/02/25 09:48:20;;;;;;;17.80;2.15;;;;;;;;;;4994090;28;20042;-89
2022/02/25 09:50:51;;;;;;;13.63;2.00;;;;;;;;;;5008180;28;20028;-90
2022/02/25 09:53:23;;;;;;;16.95;1.95;;;;;;;;;;5011760;28;20026;-92
2022/02/25 09:55:53;;;;;;;12.93;1.98;;;;;;;;;;5002162;28;20725;-88
2022/02/25 09:58:19;;;;;;;16.73;2.33;;;;;;;;;;5008607;28;20025;-87
2022/02/25 10:00:56;;;;;;;;;;;;;;;;;;;;;
2022/02/25 10:03:25;;;;;;;15.50;1.85;;;;;;;;;;5021348;28;20038;-88
2022/02/25 10:05:51;;;;;;;23.95;1.92;;;;;;;;;;4993181;28;20028;-86
2022/02/25 10:08:21;;;;;;;17.75;2.17;;;;;;;;;;4986383;28;20030;-88
2022/02/25 10:10:51;;;;;;;12.80;1.90;;;;;;;;;;4980878;28;20114;-88
2022/02/25 10:13:19;;;;;;;53.83;4.10;;;;;;;;;;4974213;28;20332;-88
2022/02/25 10:15:45;;;;;;;17.73;2.40;;;;;;;;;;4982975;28;20013;-89
2022/02/25 10:18:21;;;;;;;11.43;1.50;;;;;;;;;;4976546;28;20404;-91
2022/02/25 10:20:48;;;;;;;11.45;1.90;;;;;;;;;;4991921;28;20143;-89
2022/02/25 10:23:22;;;;;;;16.15;1.85;;;;;;;;;;4992682;28;20466;-90
2022/02/25 10:25:48;;;;;;;13.93;1.38;;;;;;;;;;4992586;28;20450;-89
2022/02/25 10:28:13;;;;;;;12.07;1.40;;;;;;;;;;4977225;28;20026;-89
2022/02/25 10:30:42;;;;;;;19.55;2.28;;;;;;;;;;4996302;28;20432;-89
2022/02/25 10:33:18;;;;;;;11.32;1.83;;;;;;;;;;4943313;28;20119;-89
2022/02/25 10:36:26;;;;;;;;;;;;;;;;;;;;;
2022/02/25 10:39:17;;;;;;;16.70;2.50;;;;;;;;;;4991538;28;20104;-92
2022/02/25 10:42:04;;;;;;;14.93;2.13;;;;;;;;;;4965700;28;20033;-89
2022/02/25 10:44:51;;;;;;;20.08;2.60;;;;;;;;;;4995842;28;20025;-87
2022/02/25 10:47:20;;;;;;;9.60;1.80;;;;;;;;;;4987264;28;20026;-87
2022/02/25 10:49:48;;;;;;;10.93;1.75;;;;;;;;;;4976208;28;20053;-91
2022/02/25 10:52:18;;;;;;;7.45;1.25;;;;;;;;;;4998325;28;20081;-92
2022/02/25 10:54:46;;;;;;;6.18;1.38;;;;;;;;;;4984882;28;20041;-91
2022/02/25 10:57:12;;;;;;;9.57;1.10;;;;;;;;;;4963057;28;20037;-91
2022/02/25 10:59:49;;;;;;;9.27;1.70;;;;;;;;;;4973804;28;20038;-89
2022/02/25 11:02:22;;;;;;;10.40;1.45;;;;;;;;;;4985584;28;20044;-91
2022/02/25 11:05:02;;;;;;;15.90;1.92;;;;;;;;;;4994379;28;20026;-89
2022/02/25 11:07:29;;;;;;;10.85;1.60;;;;;;;;;;5011363;28;20025;-88
2022/02/25 11:09:54;;;;;;;11.23;1.75;;;;;;;;;;4956471;28;20045;-90
2022/02/25 11:12:21;;;;;;;14.50;2.00;;;;;;;;;;4952109;28;20037;-90
2022/02/25 11:14:47;;;;;;;17.02;1.83;;;;;;;;;;4972701;28;20038;-94
2022/02/25 11:17:17;;;;;;;17.80;2.63;;;;;;;;;;4969259;28;20049;-91
2022/02/25 11:19:44;;;;;;;10.40;1.70;;;;;;;;;;4984861;28;20057;-90
2022/02/25 11:22:11;;;;;;;10.15;1.55;;;;;;;;;;4955850;28;20049;-90
2022/02/25 11:24:39;;;;;;;12.65;1.08;;;;;;;;;;4984799;28;20037;-90
2022/02/25 11:27:08;;;;;;;3.58;0.65;;;;;;;;;;4966138;28;20034;-91
2022/02/25 11:29:38;;;;;;;6.25;0.82;;;;;;;;;;4978234;28;20025;-92
2022/02/25 11:32:06;;;;;;;6.70;0.90;;;;;;;;;;4973460;28;20022;-89
2022/02/25 11:34:43;;;;;;;5.35;1.00;;;;;;;;;;5002250;28;20022;-91
2022/02/25 11:37:19;;;;;;;1.65;0.80;;;;;;;;;;4981404;28;20052;-91
2022/02/25 11:39:51;;;;;;;12.93;1.02;;;;;;;;;;4976947;28;20042;-92
2022/02/25 11:42:34;;;;;;;7.35;1.20;;;;;;;;;;4985715;28;20029;-92
2022/02/25 11:45:31;;;;;;;6.90;1.30;;;;;;;;;;4983069;28;20034;-92
2022/02/25 11:47:58;;;;;;;5.35;1.05;;;;;;;;;;4997466;28;20238;-92
2022/02/25 11:50:44;;;;;;;15.00;1.02;;;;;;;;;;4986235;28;20041;-89
2022/02/25 11:53:46;;;;;;;12.43;1.70;;;;;;;;;;4988076;28;20042;-90
2022/02/25 11:56:20;;;;;;;9.95;1.20;;;;;;;;;;4939502;28;20148;-90
2022/02/25 11:58:55;;;;;;;9.98;1.42;;;;;;;;;;4981295;28;20022;-91
2022/02/25 12:01:22;;;;;;;5.90;1.40;;;;;;;;;;4989008;28;20389;-91
2022/02/25 12:04:07;;;;;;;14.30;1.73;;;;;;;;;;4953820;28;20118;-89
2022/02/25 12:06:55;;;;;;;14.90;1.35;;;;;;;;;;4990593;28;20367;-91
2022/02/25 12:09:40;;;;;;;11.35;1.67;;;;;;;;;;4981671;28;20026;-91
2022/02/25 12:12:31;;;;;;;11.63;1.80;;;;;;;;;;4986901;28;20028;-91
2022/02/25 12:15:03;;;;;;;12.00;2.33;;;;;;;;;;4979522;28;20034;-88
2022/02/25 12:17:48;;;;;;;12.88;1.10;;;;;;;;;;4980829;28;20025;-90
2022/02/25 12:20:44;;;;;;;12.95;1.92;;;;;;;;;;4995648;28;20120;-91
2022/02/25 12:27:02;;;;;;;19.35;1.90;;;;;;;;;;4993189;28;20038;-89
2022/02/25 12:29:32;;;;;;;9.23;1.63;;;;;;;;;;4966277;28;20031;-88
2022/02/25 12:31:57;;;;;;;7.68;1.40;;;;;;;;;;4966659;28;20042;-89
2022/02/25 12:34:32;;;;;;;10.00;1.40;;;;;;;;;;4990008;28;20026;-89
2022/02/25 12:36:59;;;;;;;13.02;1.65;;;;;;;;;;4988347;28;20109;-93
2022/02/25 12:39:35;;;;;;;15.05;1.92;;;;;;;;;;4985468;28;20030;-92
2022/02/25 12:42:05;;;;;;;9.15;1.40;;;;;;;;;;4985777;28;20080;-92
2022/02/25 12:47:37;;;;;;;12.40;1.67;;;;;;;;;;4997068;28;20049;-88
2022/02/25 12:50:04;;;;;;;5.65;1.02;;;;;;;;;;4986532;28;20124;-91
2022/02/25 12:52:41;;;;;;;6.95;1.10;;;;;;;;;;4985853;28;20463;-91
2022/02/25 12:55:15;;;;;;;8.75;1.90;;;;;;;;;;4970206;28;20084;-89
2022/02/25 12:57:41;;;;;;;10.25;1.55;;;;;;;;;;4981290;28;20027;-93
2022/02/25 13:00:08;;;;;;;14.55;1.80;;;;;;;;;;4962395;28;20420;-90
2022/02/25 13:02:35;;;;;;;6.28;1.33;;;;;;;;;;4965937;28;20042;-91
2022/02/25 13:05:04;;;;;;;7.75;1.42;;;;;;;;;;4970369;28;20117;-88
2022/02/25 13:07:32;;;;;;;8.40;1.40;;;;;;;;;;4970152;28;20487;-90
2022/02/25 13:10:04;;;;;;;8.35;1.67;;;;;;;;;;4968272;28;20376;-89
2022/02/25 13:12:31;;;;;;;9.93;2.20;;;;;;;;;;4986919;28;20556;-91
2022/02/25 13:15:06;;;;;;;12.98;1.67;;;;;;;;;;4971839;28;20026;-89
2022/02/25 13:17:33;;;;;;;10.68;2.03;;;;;;;;;;4986118;28;20088;-89
2022/02/25 13:20:30;;;;;;;14.98;1.52;;;;;;;;;;4993249;28;20048;-90
2022/02/25 13:23:01;;;;;;;7.90;1.35;;;;;;;;;;4992247;28;20046;-93
2022/02/25 13:25:27;;;;;;;20.65;1.90;;;;;;;;;;5010017;28;20038;-89
2022/02/25 13:28:01;;;;;;;14.10;1.33;;;;;;;;;;5010134;28;20032;-90
2022/02/25 13:30:44;;;;;;;11.23;1.83;;;;;;;;;;4973487;28;20045;-92
2022/02/25 13:33:16;;;;;;;9.93;1.75;;;;;;;;;;4985526;28;20455;-88
2022/02/25 13:36:07;;;;;;;14.55;2.55;;;;;;;;;;4984031;28;20029;-90
2022/02/25 13:38:40;;;;;;;11.63;1.77;;;;;;;;;;4984873;28;20069;-90
2022/02/25 13:44:52;;;;;;;10.20;1.75;;;;;;;;;;5002706;28;20056;-92
2022/02/25 13:54:12;;;;;;;;;;;;;;;;;;;;;
2022/02/25 13:57:14;;;;;;;10.52;1.00;;;;;;;;;;4989773;28;22033;-90
2022/02/25 13:59:51;;;;;;;10.60;1.20;;;;;;;;;;4982204;28;20040;-91
2022/02/25 14:02:46;;;;;;;18.25;1.85;;;;;;;;;;4936831;28;20042;-89
2022/02/25 14:05:15;;;;;;;10.88;1.52;;;;;;;;;;4969752;28;20111;-90
2022/02/25 14:07:58;;;;;;;13.95;2.35;;;;;;;;;;5004670;28;20025;-88
2022/02/25 14:10:31;;;;;;;13.02;1.58;;;;;;;;;;4992259;28;20468;-89
2022/02/25 14:13:31;;;;;;;6.82;1.10;;;;;;;;;;4983596;28;20478;-89
2022/02/25 14:16:01;;;;;;;13.45;0.90;;;;;;;;;;4990149;28;20053;-89
2022/02/25 14:18:53;;;;;;;14.70;1.42;;;;;;;;;;4993023;28;20034;-90
2022/02/25 14:21:41;;;;;;;10.23;1.90;;;;;;;;;;4986158;28;20048;-88
2022/02/25 14:24:29;;;;;;;8.75;1.27;;;;;;;;;;4990175;28;20051;-93
2022/02/25 14:27:13;;;;;;;16.55;1.63;;;;;;;;;;4992410;28;20041;-92
2022/02/25 14:29:39;;;;;;;13.80;1.27;;;;;;;;;;4989675;28;20030;-88
2022/02/25 14:32:14;;;;;;;15.82;1.60;;;;;;;;;;4972037;28;20279;-89
2022/02/25 14:34:49;;;;;;;12.07;1.55;;;;;;;;;;4989114;28;20026;-91
2022/02/25 14:37:37;;;;;;;9.75;1.58;;;;;;;;;;4972520;28;20140;-88
2022/02/25 14:40:05;;;;;;;9.07;1.77;;;;;;;;;;4972560;28;20045;-90
2022/02/25 14:42:40;;;;;;;22.40;2.28;;;;;;;;;;4986733;28;20026;-88
2022/02/25 14:45:07;;;;;;;12.80;1.98;;;;;;;;;;4980758;28;20589;-89
2022/02/25 14:47:45;;;;;;;17.20;1.73;;;;;;;;;;4987898;28;20023;-89
2022/02/25 14:50:13;;;;;;;24.23;2.13;;;;;;;;;;4996341;28;20436;-88
2022/02/25 14:52:50;;;;;;;24.35;2.45;;;;;;;;;;4999598;28;20022;-88
2022/02/25 14:55:17;;;;;;;9.45;1.88;;;;;;;;;;5009291;28;20083;-88
2022/02/25 14:57:42;;;;;;;16.67;3.17;;;;;;;;;;4985657;28;20045;-87
2022/02/25 15:00:18;;;;;;;13.27;2.20;;;;;;;;;;4974933;28;20029;-89
2022/02/25 15:03:05;;;;;;;20.58;2.10;;;;;;;;;;4963543;28;20030;-87
2022/02/25 15:05:33;;;;;;;19.33;2.15;;;;;;;;;;4964381;28;20182;-92
2022/02/25 15:08:15;;;;;;;18.10;2.67;;;;;;;;;;4977874;28;20046;-90
2022/02/25 15:10:58;;;;;;;22.30;2.20;;;;;;;;;;4971799;28;20483;-89
2022/02/25 15:13:24;;;;;;;13.85;2.72;;;;;;;;;;4954951;28;20039;-88
2022/02/25 15:16:11;;;;;;;14.23;3.20;;;;;;;;;;4952166;28;20014;-90
2022/02/25 15:18:36;;;;;;;12.35;1.92;;;;;;;;;;4954182;28;20031;-88
2022/02/25 15:21:06;;;;;;;13.32;2.28;;;;;;;;;;4989615;28;20026;-90